sensor_id;sensor_type;location;lat;lon;timestamp;P1;durP1;ratioP1;P2;durP2;ratioP2
11481;SDS011;5797;51.662;6.748;2023-05-03T00:01:02;3.77;;;2.93;;
11481;SDS011;5797;51.662;6.748;2023-05-03T00:03:35;4.60;;;2.50;;
11481;SDS011;5797;51.662;6.748;2023-05-03T00:06:10;4.73;;;2.37;;
11481;SDS011;5797;51.662;6.748;2023-05-03T00:08:39;4.13;;;2.33;;
11481;SDS011;5797;51.662;6.748;2023-05-03T00:11:10;4.03;;;2.60;;
11481;SDS011;5797;51.662;6.748;2023-05-03T00:13:38;4.63;;;2.60;;
11481;SDS011;5797;51.662;6.748;2023-05-03T00:16:07;5.50;;;2.57;;
11481;SDS011;5797;51.662;6.748;2023-05-03T00:18:35;3.67;;;2.23;;
11481;SDS011;5797;51.662;6.748;2023-05-03T00:21:03;3.93;;;2.80;;
11481;SDS011;5797;51.662;6.748;2023-05-03T00:23:32;4.00;;;3.07;;
11481;SDS011;5797;51.662;6.748;2023-05-03T00:26:00;4.90;;;2.80;;
11481;SDS011;5797;51.662;6.748;2023-05-03T00:28:30;4.90;;;2.40;;
11481;SDS011;5797;51.662;6.748;2023-05-03T00:31:05;4.37;;;2.90;;
11481;SDS011;5797;51.662;6.748;2023-05-03T00:33:35;6.83;;;3.30;;
11481;SDS011;5797;51.662;6.748;2023-05-03T00:36:06;7.23;;;3.13;;
11481;SDS011;5797;51.662;6.748;2023-05-03T00:38:36;3.10;;;2.60;;
11481;SDS011;5797;51.662;6.748;2023-05-03T00:41:04;6.33;;;3.10;;
11481;SDS011;5797;51.662;6.748;2023-05-03T00:43:34;5.13;;;2.97;;
11481;SDS011;5797;51.662;6.748;2023-05-03T00:46:04;5.20;;;3.13;;
11481;SDS011;5797;51.662;6.748;2023-05-03T00:48:42;4.50;;;2.73;;
11481;SDS011;5797;51.662;6.748;2023-05-03T00:51:10;4.23;;;3.03;;
11481;SDS011;5797;51.662;6.748;2023-05-03T00:53:39;10.53;;;3.13;;
11481;SDS011;5797;51.662;6.748;2023-05-03T00:56:08;4.53;;;3.30;;
11481;SDS011;5797;51.662;6.748;2023-05-03T00:58:39;7.70;;;3.63;;
11481;SDS011;5797;51.662;6.748;2023-05-03T01:01:07;7.87;;;3.47;;
11481;SDS011;5797;51.662;6.748;2023-05-03T01:03:36;4.67;;;3.10;;
11481;SDS011;5797;51.662;6.748;2023-05-03T01:06:10;6.87;;;3.03;;
11481;SDS011;5797;51.662;6.748;2023-05-03T01:08:43;6.20;;;3.67;;
11481;SDS011;5797;51.662;6.748;2023-05-03T01:11:16;6.57;;;3.30;;
11481;SDS011;5797;51.662;6.748;2023-05-03T01:13:51;5.60;;;2.90;;
11481;SDS011;5797;51.662;6.748;2023-05-03T01:16:23;7.80;;;3.20;;
11481;SDS011;5797;51.662;6.748;2023-05-03T01:18:54;5.83;;;3.50;;
11481;SDS011;5797;51.662;6.748;2023-05-03T01:21:27;5.90;;;3.83;;
11481;SDS011;5797;51.662;6.748;2023-05-03T01:23:58;6.87;;;3.20;;
11481;SDS011;5797;51.662;6.748;2023-05-03T01:26:33;4.33;;;3.40;;
11481;SDS011;5797;51.662;6.748;2023-05-03T01:29:01;7.63;;;3.83;;
11481;SDS011;5797;51.662;6.748;2023-05-03T01:31:31;4.80;;;3.63;;
11481;SDS011;5797;51.662;6.748;2023-05-03T01:34:06;4.30;;;3.60;;
11481;SDS011;5797;51.662;6.748;2023-05-03T01:36:42;7.13;;;3.63;;
11481;SDS011;5797;51.662;6.748;2023-05-03T01:39:13;5.53;;;3.23;;
11481;SDS011;5797;51.662;6.748;2023-05-03T01:41:45;5.10;;;3.17;;
11481;SDS011;5797;51.662;6.748;2023-05-03T01:44:14;5.03;;;3.17;;
11481;SDS011;5797;51.662;6.748;2023-05-03T01:46:43;9.63;;;3.20;;
11481;SDS011;5797;51.662;6.748;2023-05-03T01:49:11;4.70;;;3.10;;
11481;SDS011;5797;51.662;6.748;2023-05-03T01:51:40;7.43;;;3.10;;
11481;SDS011;5797;51.662;6.748;2023-05-03T01:54:08;6.70;;;3.07;;
11481;SDS011;5797;51.662;6.748;2023-05-03T01:56:37;4.20;;;3.00;;
11481;SDS011;5797;51.662;6.748;2023-05-03T01:59:07;8.77;;;3.10;;
11481;SDS011;5797;51.662;6.748;2023-05-03T02:01:35;4.30;;;2.83;;
11481;SDS011;5797;51.662;6.748;2023-05-03T02:04:04;5.37;;;3.10;;
11481;SDS011;5797;51.662;6.748;2023-05-03T02:06:32;6.23;;;2.90;;
11481;SDS011;5797;51.662;6.748;2023-05-03T02:09:02;6.20;;;3.20;;
11481;SDS011;5797;51.662;6.748;2023-05-03T02:11:30;8.00;;;3.47;;
11481;SDS011;5797;51.662;6.748;2023-05-03T02:13:59;4.73;;;2.90;;
11481;SDS011;5797;51.662;6.748;2023-05-03T02:16:28;4.93;;;2.90;;
11481;SDS011;5797;51.662;6.748;2023-05-03T02:18:57;3.33;;;2.67;;
11481;SDS011;5797;51.662;6.748;2023-05-03T02:21:25;6.33;;;3.50;;
11481;SDS011;5797;51.662;6.748;2023-05-03T02:23:54;7.67;;;2.90;;
11481;SDS011;5797;51.662;6.748;2023-05-03T02:26:22;4.67;;;3.00;;
11481;SDS011;5797;51.662;6.748;2023-05-03T02:28:50;3.73;;;2.60;;
11481;SDS011;5797;51.662;6.748;2023-05-03T02:31:19;4.17;;;3.10;;
11481;SDS011;5797;51.662;6.748;2023-05-03T02:33:49;11.33;;;3.40;;
11481;SDS011;5797;51.662;6.748;2023-05-03T02:36:18;5.40;;;3.00;;
11481;SDS011;5797;51.662;6.748;2023-05-03T02:38:47;7.83;;;3.50;;
11481;SDS011;5797;51.662;6.748;2023-05-03T02:41:15;5.70;;;3.07;;
11481;SDS011;5797;51.662;6.748;2023-05-03T02:43:44;4.90;;;2.90;;
11481;SDS011;5797;51.662;6.748;2023-05-03T02:46:12;4.23;;;3.00;;
11481;SDS011;5797;51.662;6.748;2023-05-03T02:48:40;9.13;;;3.00;;
11481;SDS011;5797;51.662;6.748;2023-05-03T02:51:13;6.40;;;3.17;;
11481;SDS011;5797;51.662;6.748;2023-05-03T02:53:42;3.40;;;2.43;;
11481;SDS011;5797;51.662;6.748;2023-05-03T02:56:10;4.97;;;2.80;;
11481;SDS011;5797;51.662;6.748;2023-05-03T02:58:38;3.43;;;2.60;;
11481;SDS011;5797;51.662;6.748;2023-05-03T03:01:07;5.23;;;2.80;;
11481;SDS011;5797;51.662;6.748;2023-05-03T03:03:35;4.43;;;3.07;;
11481;SDS011;5797;51.662;6.748;2023-05-03T03:06:04;6.93;;;3.07;;
11481;SDS011;5797;51.662;6.748;2023-05-03T03:08:36;5.13;;;2.60;;
11481;SDS011;5797;51.662;6.748;2023-05-03T03:11:06;4.23;;;3.07;;
11481;SDS011;5797;51.662;6.748;2023-05-03T03:13:35;3.47;;;2.83;;
11481;SDS011;5797;51.662;6.748;2023-05-03T03:16:06;3.80;;;3.00;;
11481;SDS011;5797;51.662;6.748;2023-05-03T03:18:35;4.17;;;2.50;;
11481;SDS011;5797;51.662;6.748;2023-05-03T03:21:04;5.70;;;3.03;;
11481;SDS011;5797;51.662;6.748;2023-05-03T03:23:36;5.53;;;2.83;;
11481;SDS011;5797;51.662;6.748;2023-05-03T03:26:04;8.87;;;2.93;;
11481;SDS011;5797;51.662;6.748;2023-05-03T03:28:35;4.83;;;2.80;;
11481;SDS011;5797;51.662;6.748;2023-05-03T03:31:08;4.23;;;3.10;;
11481;SDS011;5797;51.662;6.748;2023-05-03T03:33:37;4.40;;;2.70;;
11481;SDS011;5797;51.662;6.748;2023-05-03T03:36:15;4.37;;;2.87;;
11481;SDS011;5797;51.662;6.748;2023-05-03T03:38:48;5.50;;;3.03;;
11481;SDS011;5797;51.662;6.748;2023-05-03T03:41:17;4.67;;;2.90;;
11481;SDS011;5797;51.662;6.748;2023-05-03T03:43:46;4.47;;;2.67;;
11481;SDS011;5797;51.662;6.748;2023-05-03T03:46:18;5.07;;;2.70;;
11481;SDS011;5797;51.662;6.748;2023-05-03T03:48:50;5.40;;;3.13;;
11481;SDS011;5797;51.662;6.748;2023-05-03T03:51:20;6.20;;;2.67;;
11481;SDS011;5797;51.662;6.748;2023-05-03T03:53:49;4.70;;;3.07;;
11481;SDS011;5797;51.662;6.748;2023-05-03T03:56:20;4.87;;;2.93;;
11481;SDS011;5797;51.662;6.748;2023-05-03T03:58:51;4.53;;;2.70;;
11481;SDS011;5797;51.662;6.748;2023-05-03T04:01:20;5.80;;;2.63;;
11481;SDS011;5797;51.662;6.748;2023-05-03T04:03:48;8.90;;;3.13;;
11481;SDS011;5797;51.662;6.748;2023-05-03T04:06:17;7.53;;;3.43;;
11481;SDS011;5797;51.662;6.748;2023-05-03T04:08:46;7.10;;;2.80;;
11481;SDS011;5797;51.662;6.748;2023-05-03T04:11:17;7.10;;;3.13;;
11481;SDS011;5797;51.662;6.748;2023-05-03T04:13:52;4.87;;;2.73;;
11481;SDS011;5797;51.662;6.748;2023-05-03T04:16:21;4.57;;;2.90;;
11481;SDS011;5797;51.662;6.748;2023-05-03T04:18:49;6.77;;;2.93;;
11481;SDS011;5797;51.662;6.748;2023-05-03T04:21:19;7.77;;;2.93;;
11481;SDS011;5797;51.662;6.748;2023-05-03T04:23:47;4.23;;;2.50;;
11481;SDS011;5797;51.662;6.748;2023-05-03T04:26:20;3.60;;;3.13;;
11481;SDS011;5797;51.662;6.748;2023-05-03T04:29:00;4.83;;;2.83;;
11481;SDS011;5797;51.662;6.748;2023-05-03T04:31:30;3.77;;;2.67;;
11481;SDS011;5797;51.662;6.748;2023-05-03T04:33:58;4.70;;;3.20;;
11481;SDS011;5797;51.662;6.748;2023-05-03T04:36:27;7.90;;;2.87;;
11481;SDS011;5797;51.662;6.748;2023-05-03T04:38:58;10.30;;;4.07;;
11481;SDS011;5797;51.662;6.748;2023-05-03T04:41:28;9.00;;;4.27;;
11481;SDS011;5797;51.662;6.748;2023-05-03T04:43:57;5.67;;;3.70;;
11481;SDS011;5797;51.662;6.748;2023-05-03T04:46:26;6.47;;;3.50;;
11481;SDS011;5797;51.662;6.748;2023-05-03T04:48:55;5.17;;;3.23;;
11481;SDS011;5797;51.662;6.748;2023-05-03T04:51:24;7.00;;;3.37;;
11481;SDS011;5797;51.662;6.748;2023-05-03T04:53:54;4.67;;;3.27;;
11481;SDS011;5797;51.662;6.748;2023-05-03T04:56:23;7.27;;;3.53;;
11481;SDS011;5797;51.662;6.748;2023-05-03T04:59:01;5.50;;;3.57;;
11481;SDS011;5797;51.662;6.748;2023-05-03T05:01:32;4.23;;;3.20;;
11481;SDS011;5797;51.662;6.748;2023-05-03T05:04:02;7.93;;;3.60;;
11481;SDS011;5797;51.662;6.748;2023-05-03T05:06:49;7.17;;;4.33;;
11481;SDS011;5797;51.662;6.748;2023-05-03T05:09:25;4.67;;;3.30;;
11481;SDS011;5797;51.662;6.748;2023-05-03T05:11:57;10.60;;;3.40;;
11481;SDS011;5797;51.662;6.748;2023-05-03T05:14:33;6.67;;;3.43;;
11481;SDS011;5797;51.662;6.748;2023-05-03T05:17:02;7.57;;;3.50;;
11481;SDS011;5797;51.662;6.748;2023-05-03T05:19:31;5.97;;;3.50;;
11481;SDS011;5797;51.662;6.748;2023-05-03T05:22:00;6.20;;;3.87;;
11481;SDS011;5797;51.662;6.748;2023-05-03T05:24:38;4.83;;;3.10;;
11481;SDS011;5797;51.662;6.748;2023-05-03T05:27:09;5.93;;;4.07;;
11481;SDS011;5797;51.662;6.748;2023-05-03T05:29:40;6.77;;;3.40;;
11481;SDS011;5797;51.662;6.748;2023-05-03T05:32:09;5.03;;;3.47;;
11481;SDS011;5797;51.662;6.748;2023-05-03T05:34:39;4.30;;;3.10;;
11481;SDS011;5797;51.662;6.748;2023-05-03T05:37:14;5.97;;;3.80;;
11481;SDS011;5797;51.662;6.748;2023-05-03T05:39:44;6.07;;;3.40;;
11481;SDS011;5797;51.662;6.748;2023-05-03T05:42:13;5.97;;;3.93;;
11481;SDS011;5797;51.662;6.748;2023-05-03T05:44:44;9.20;;;3.83;;
11481;SDS011;5797;51.662;6.748;2023-05-03T05:47:13;5.17;;;3.27;;
11481;SDS011;5797;51.662;6.748;2023-05-03T05:49:44;5.73;;;3.73;;
11481;SDS011;5797;51.662;6.748;2023-05-03T05:52:13;10.63;;;4.13;;
11481;SDS011;5797;51.662;6.748;2023-05-03T05:54:42;4.83;;;3.03;;
11481;SDS011;5797;51.662;6.748;2023-05-03T05:57:14;10.37;;;4.07;;
11481;SDS011;5797;51.662;6.748;2023-05-03T05:59:44;6.07;;;3.50;;
11481;SDS011;5797;51.662;6.748;2023-05-03T06:02:14;5.93;;;4.10;;
11481;SDS011;5797;51.662;6.748;2023-05-03T06:04:45;5.67;;;3.87;;
11481;SDS011;5797;51.662;6.748;2023-05-03T06:07:14;5.50;;;3.73;;
11481;SDS011;5797;51.662;6.748;2023-05-03T06:09:43;13.47;;;4.40;;
11481;SDS011;5797;51.662;6.748;2023-05-03T06:12:12;7.60;;;4.23;;
11481;SDS011;5797;51.662;6.748;2023-05-03T06:14:43;9.53;;;4.10;;
11481;SDS011;5797;51.662;6.748;2023-05-03T06:17:29;7.20;;;4.07;;
11481;SDS011;5797;51.662;6.748;2023-05-03T06:19:57;7.63;;;4.20;;
11481;SDS011;5797;51.662;6.748;2023-05-03T06:22:27;11.70;;;3.93;;
11481;SDS011;5797;51.662;6.748;2023-05-03T06:24:56;4.93;;;3.50;;
11481;SDS011;5797;51.662;6.748;2023-05-03T06:27:25;8.97;;;4.13;;
11481;SDS011;5797;51.662;6.748;2023-05-03T06:29:56;7.00;;;3.97;;
11481;SDS011;5797;51.662;6.748;2023-05-03T06:32:28;6.20;;;3.70;;
11481;SDS011;5797;51.662;6.748;2023-05-03T06:34:57;9.30;;;4.10;;
11481;SDS011;5797;51.662;6.748;2023-05-03T06:37:28;9.40;;;4.33;;
11481;SDS011;5797;51.662;6.748;2023-05-03T06:40:06;8.27;;;3.70;;
11481;SDS011;5797;51.662;6.748;2023-05-03T06:42:35;8.77;;;3.57;;
11481;SDS011;5797;51.662;6.748;2023-05-03T06:45:09;6.07;;;3.37;;
11481;SDS011;5797;51.662;6.748;2023-05-03T06:47:39;5.37;;;3.53;;
11481;SDS011;5797;51.662;6.748;2023-05-03T06:50:09;6.73;;;3.40;;
11481;SDS011;5797;51.662;6.748;2023-05-03T06:52:38;5.30;;;3.37;;
11481;SDS011;5797;51.662;6.748;2023-05-03T06:55:07;5.73;;;3.23;;
11481;SDS011;5797;51.662;6.748;2023-05-03T06:57:37;5.87;;;2.77;;
11481;SDS011;5797;51.662;6.748;2023-05-03T07:00:14;7.13;;;3.60;;
11481;SDS011;5797;51.662;6.748;2023-05-03T07:02:51;5.17;;;3.17;;
11481;SDS011;5797;51.662;6.748;2023-05-03T07:05:33;5.50;;;3.00;;
11481;SDS011;5797;51.662;6.748;2023-05-03T07:08:06;4.20;;;2.90;;
11481;SDS011;5797;51.662;6.748;2023-05-03T07:10:35;7.83;;;3.00;;
11481;SDS011;5797;51.662;6.748;2023-05-03T07:13:14;6.00;;;2.73;;
11481;SDS011;5797;51.662;6.748;2023-05-03T07:15:57;7.93;;;3.10;;
11481;SDS011;5797;51.662;6.748;2023-05-03T07:18:30;7.40;;;2.77;;
11481;SDS011;5797;51.662;6.748;2023-05-03T07:21:04;5.63;;;2.30;;
11481;SDS011;5797;51.662;6.748;2023-05-03T07:23:42;5.73;;;2.77;;
11481;SDS011;5797;51.662;6.748;2023-05-03T07:26:11;5.27;;;2.70;;
11481;SDS011;5797;51.662;6.748;2023-05-03T07:28:40;8.10;;;2.57;;
11481;SDS011;5797;51.662;6.748;2023-05-03T07:31:18;5.80;;;2.80;;
11481;SDS011;5797;51.662;6.748;2023-05-03T07:33:49;5.30;;;3.00;;
11481;SDS011;5797;51.662;6.748;2023-05-03T07:36:18;5.20;;;2.67;;
11481;SDS011;5797;51.662;6.748;2023-05-03T07:38:49;5.77;;;2.60;;
11481;SDS011;5797;51.662;6.748;2023-05-03T07:41:18;5.43;;;2.77;;
11481;SDS011;5797;51.662;6.748;2023-05-03T07:43:47;4.23;;;2.10;;
11481;SDS011;5797;51.662;6.748;2023-05-03T07:46:16;6.57;;;2.90;;
11481;SDS011;5797;51.662;6.748;2023-05-03T07:48:47;4.97;;;2.40;;
11481;SDS011;5797;51.662;6.748;2023-05-03T07:51:23;2.77;;;1.80;;
11481;SDS011;5797;51.662;6.748;2023-05-03T07:53:51;4.50;;;2.43;;
11481;SDS011;5797;51.662;6.748;2023-05-03T07:56:22;4.73;;;2.10;;
11481;SDS011;5797;51.662;6.748;2023-05-03T07:58:51;6.03;;;2.70;;
11481;SDS011;5797;51.662;6.748;2023-05-03T08:01:35;7.20;;;2.40;;
11481;SDS011;5797;51.662;6.748;2023-05-03T08:04:04;3.70;;;2.30;;
11481;SDS011;5797;51.662;6.748;2023-05-03T08:06:33;4.17;;;2.47;;
11481;SDS011;5797;51.662;6.748;2023-05-03T08:09:04;3.40;;;2.30;;
11481;SDS011;5797;51.662;6.748;2023-05-03T08:11:33;4.10;;;2.30;;
11481;SDS011;5797;51.662;6.748;2023-05-03T08:14:01;4.40;;;2.37;;
11481;SDS011;5797;51.662;6.748;2023-05-03T08:16:30;3.47;;;2.60;;
11481;SDS011;5797;51.662;6.748;2023-05-03T08:19:03;5.17;;;2.27;;
11481;SDS011;5797;51.662;6.748;2023-05-03T08:21:31;2.93;;;1.90;;
11481;SDS011;5797;51.662;6.748;2023-05-03T08:24:01;2.97;;;2.07;;
11481;SDS011;5797;51.662;6.748;2023-05-03T08:26:31;3.27;;;2.20;;
11481;SDS011;5797;51.662;6.748;2023-05-03T08:29:00;5.30;;;2.43;;
11481;SDS011;5797;51.662;6.748;2023-05-03T08:31:30;3.13;;;2.50;;
11481;SDS011;5797;51.662;6.748;2023-05-03T08:33:58;6.77;;;2.90;;
11481;SDS011;5797;51.662;6.748;2023-05-03T08:36:28;7.87;;;2.50;;
11481;SDS011;5797;51.662;6.748;2023-05-03T08:38:57;5.40;;;2.10;;
11481;SDS011;5797;51.662;6.748;2023-05-03T08:41:26;3.57;;;2.17;;
11481;SDS011;5797;51.662;6.748;2023-05-03T08:43:57;7.57;;;2.33;;
11481;SDS011;5797;51.662;6.748;2023-05-03T08:46:26;5.63;;;2.40;;
11481;SDS011;5797;51.662;6.748;2023-05-03T08:48:55;2.97;;;2.10;;
11481;SDS011;5797;51.662;6.748;2023-05-03T08:51:23;3.10;;;2.20;;
11481;SDS011;5797;51.662;6.748;2023-05-03T08:53:54;3.33;;;2.63;;
11481;SDS011;5797;51.662;6.748;2023-05-03T08:56:24;3.50;;;2.27;;
11481;SDS011;5797;51.662;6.748;2023-05-03T08:58:56;4.47;;;2.50;;
11481;SDS011;5797;51.662;6.748;2023-05-03T09:01:30;3.00;;;2.07;;
11481;SDS011;5797;51.662;6.748;2023-05-03T09:03:59;2.67;;;2.20;;
11481;SDS011;5797;51.662;6.748;2023-05-03T09:06:28;7.70;;;2.50;;
11481;SDS011;5797;51.662;6.748;2023-05-03T09:09:04;5.23;;;2.07;;
11481;SDS011;5797;51.662;6.748;2023-05-03T09:11:35;4.77;;;2.53;;
11481;SDS011;5797;51.662;6.748;2023-05-03T09:14:09;3.97;;;2.50;;
11481;SDS011;5797;51.662;6.748;2023-05-03T09:16:38;4.30;;;2.50;;
11481;SDS011;5797;51.662;6.748;2023-05-03T09:19:07;3.03;;;2.30;;
11481;SDS011;5797;51.662;6.748;2023-05-03T09:21:38;3.90;;;2.50;;
11481;SDS011;5797;51.662;6.748;2023-05-03T09:24:17;3.97;;;2.43;;
11481;SDS011;5797;51.662;6.748;2023-05-03T09:26:50;3.33;;;2.13;;
11481;SDS011;5797;51.662;6.748;2023-05-03T09:29:25;4.37;;;2.13;;
11481;SDS011;5797;51.662;6.748;2023-05-03T09:31:58;4.53;;;2.43;;
11481;SDS011;5797;51.662;6.748;2023-05-03T09:34:27;4.27;;;2.10;;
11481;SDS011;5797;51.662;6.748;2023-05-03T09:36:55;5.93;;;2.70;;
11481;SDS011;5797;51.662;6.748;2023-05-03T09:39:25;6.43;;;2.50;;
11481;SDS011;5797;51.662;6.748;2023-05-03T09:41:54;3.53;;;2.60;;
11481;SDS011;5797;51.662;6.748;2023-05-03T09:44:38;3.93;;;2.67;;
11481;SDS011;5797;51.662;6.748;2023-05-03T09:47:08;4.83;;;2.47;;
11481;SDS011;5797;51.662;6.748;2023-05-03T09:49:37;3.20;;;2.40;;
11481;SDS011;5797;51.662;6.748;2023-05-03T09:52:06;6.37;;;2.63;;
11481;SDS011;5797;51.662;6.748;2023-05-03T09:54:37;3.57;;;2.23;;
11481;SDS011;5797;51.662;6.748;2023-05-03T09:57:07;3.50;;;2.27;;
11481;SDS011;5797;51.662;6.748;2023-05-03T09:59:37;4.07;;;2.43;;
11481;SDS011;5797;51.662;6.748;2023-05-03T10:02:06;6.43;;;2.47;;
11481;SDS011;5797;51.662;6.748;2023-05-03T10:04:37;5.57;;;2.40;;
11481;SDS011;5797;51.662;6.748;2023-05-03T10:07:13;4.37;;;2.33;;
11481;SDS011;5797;51.662;6.748;2023-05-03T10:09:46;3.83;;;2.37;;
11481;SDS011;5797;51.662;6.748;2023-05-03T10:12:18;5.60;;;2.70;;
11481;SDS011;5797;51.662;6.748;2023-05-03T10:14:47;4.57;;;2.60;;
11481;SDS011;5797;51.662;6.748;2023-05-03T10:17:20;4.83;;;2.60;;
11481;SDS011;5797;51.662;6.748;2023-05-03T10:20:11;2.77;;;2.43;;
11481;SDS011;5797;51.662;6.748;2023-05-03T10:25:40;3.93;;;2.20;;
11481;SDS011;5797;51.662;6.748;2023-05-03T10:28:45;3.73;;;2.60;;
11481;SDS011;5797;51.662;6.748;2023-05-03T10:34:19;3.67;;;2.40;;
11481;SDS011;5797;51.662;6.748;2023-05-03T10:36:51;3.63;;;2.40;;
11481;SDS011;5797;51.662;6.748;2023-05-03T10:39:20;5.57;;;2.60;;
11481;SDS011;5797;51.662;6.748;2023-05-03T10:41:57;6.37;;;2.50;;
11481;SDS011;5797;51.662;6.748;2023-05-03T10:44:28;3.43;;;2.27;;
11481;SDS011;5797;51.662;6.748;2023-05-03T10:47:08;5.63;;;2.50;;
11481;SDS011;5797;51.662;6.748;2023-05-03T10:49:38;5.90;;;2.57;;
11481;SDS011;5797;51.662;6.748;2023-05-03T10:55:09;4.20;;;2.70;;
11481;SDS011;5797;51.662;6.748;2023-05-03T10:57:41;3.17;;;2.87;;
11481;SDS011;5797;51.662;6.748;2023-05-03T11:00:11;3.70;;;2.27;;
11481;SDS011;5797;51.662;6.748;2023-05-03T11:02:47;3.30;;;2.47;;
11481;SDS011;5797;51.662;6.748;2023-05-03T11:05:30;4.60;;;2.70;;
11481;SDS011;5797;51.662;6.748;2023-05-03T11:08:12;2.60;;;2.00;;
11481;SDS011;5797;51.662;6.748;2023-05-03T11:10:43;4.20;;;2.47;;
11481;SDS011;5797;51.662;6.748;2023-05-03T11:13:13;3.97;;;2.23;;
11481;SDS011;5797;51.662;6.748;2023-05-03T11:15:42;4.67;;;2.70;;
11481;SDS011;5797;51.662;6.748;2023-05-03T11:18:13;6.63;;;2.97;;
11481;SDS011;5797;51.662;6.748;2023-05-03T11:20:42;5.20;;;2.67;;
11481;SDS011;5797;51.662;6.748;2023-05-03T11:23:11;6.63;;;2.93;;
11481;SDS011;5797;51.662;6.748;2023-05-03T11:25:39;4.03;;;2.50;;
11481;SDS011;5797;51.662;6.748;2023-05-03T11:28:08;4.10;;;2.40;;
11481;SDS011;5797;51.662;6.748;2023-05-03T11:30:38;4.47;;;2.43;;
11481;SDS011;5797;51.662;6.748;2023-05-03T11:33:07;4.13;;;2.17;;
11481;SDS011;5797;51.662;6.748;2023-05-03T11:35:36;2.80;;;2.47;;
11481;SDS011;5797;51.662;6.748;2023-05-03T11:38:05;5.10;;;2.67;;
11481;SDS011;5797;51.662;6.748;2023-05-03T11:40:33;3.73;;;2.77;;
11481;SDS011;5797;51.662;6.748;2023-05-03T11:43:02;3.20;;;2.47;;
11481;SDS011;5797;51.662;6.748;2023-05-03T11:45:31;4.13;;;2.77;;
11481;SDS011;5797;51.662;6.748;2023-05-03T11:48:07;9.82;;;2.90;;
11481;SDS011;5797;51.662;6.748;2023-05-03T11:50:45;3.80;;;2.43;;
11481;SDS011;5797;51.662;6.748;2023-05-03T11:53:14;6.93;;;2.55;;
11481;SDS011;5797;51.662;6.748;2023-05-03T11:55:45;3.75;;;2.90;;
11481;SDS011;5797;51.662;6.748;2023-05-03T11:58:14;3.00;;;2.60;;
11481;SDS011;5797;51.662;6.748;2023-05-03T12:00:46;3.30;;;2.70;;
11481;SDS011;5797;51.662;6.748;2023-05-03T12:03:16;3.42;;;2.63;;
11481;SDS011;5797;51.662;6.748;2023-05-03T12:05:47;4.82;;;3.20;;
11481;SDS011;5797;51.662;6.748;2023-05-03T12:08:17;6.43;;;3.05;;
11481;SDS011;5797;51.662;6.748;2023-05-03T12:10:48;5.78;;;2.83;;
11481;SDS011;5797;51.662;6.748;2023-05-03T12:13:25;3.20;;;2.78;;
11481;SDS011;5797;51.662;6.748;2023-05-03T12:15:57;3.60;;;2.67;;
11481;SDS011;5797;51.662;6.748;2023-05-03T12:18:44;4.28;;;2.80;;
11481;SDS011;5797;51.662;6.748;2023-05-03T12:21:14;3.85;;;2.70;;
11481;SDS011;5797;51.662;6.748;2023-05-03T12:23:46;4.65;;;2.75;;
11481;SDS011;5797;51.662;6.748;2023-05-03T12:26:16;7.45;;;2.72;;
11481;SDS011;5797;51.662;6.748;2023-05-03T12:28:47;4.47;;;2.72;;
11481;SDS011;5797;51.662;6.748;2023-05-03T12:31:17;3.72;;;2.70;;
11481;SDS011;5797;51.662;6.748;2023-05-03T12:33:48;4.03;;;2.40;;
11481;SDS011;5797;51.662;6.748;2023-05-03T12:36:21;3.10;;;2.67;;
11481;SDS011;5797;51.662;6.748;2023-05-03T12:38:57;3.53;;;2.88;;
11481;SDS011;5797;51.662;6.748;2023-05-03T12:41:28;7.65;;;3.13;;
11481;SDS011;5797;51.662;6.748;2023-05-03T12:44:20;5.13;;;3.20;;
11481;SDS011;5797;51.662;6.748;2023-05-03T12:46:56;5.97;;;2.65;;
11481;SDS011;5797;51.662;6.748;2023-05-03T12:49:29;3.00;;;2.67;;
11481;SDS011;5797;51.662;6.748;2023-05-03T12:51:58;4.20;;;2.95;;
11481;SDS011;5797;51.662;6.748;2023-05-03T12:54:47;3.38;;;2.90;;
11481;SDS011;5797;51.662;6.748;2023-05-03T12:57:21;4.05;;;2.92;;
11481;SDS011;5797;51.662;6.748;2023-05-03T12:59:54;5.43;;;2.72;;
11481;SDS011;5797;51.662;6.748;2023-05-03T13:02:32;5.45;;;2.90;;
11481;SDS011;5797;51.662;6.748;2023-05-03T13:05:03;4.75;;;3.20;;
11481;SDS011;5797;51.662;6.748;2023-05-03T13:07:38;5.47;;;3.35;;
11481;SDS011;5797;51.662;6.748;2023-05-03T13:10:09;4.85;;;2.88;;
11481;SDS011;5797;51.662;6.748;2023-05-03T13:12:44;5.50;;;2.88;;
11481;SDS011;5797;51.662;6.748;2023-05-03T13:15:15;3.80;;;2.78;;
11481;SDS011;5797;51.662;6.748;2023-05-03T13:17:54;8.73;;;3.33;;
11481;SDS011;5797;51.662;6.748;2023-05-03T13:20:27;3.90;;;2.90;;
11481;SDS011;5797;51.662;6.748;2023-05-03T13:22:59;6.95;;;3.40;;
11481;SDS011;5797;51.662;6.748;2023-05-03T13:25:33;5.72;;;3.33;;
11481;SDS011;5797;51.662;6.748;2023-05-03T13:28:06;4.45;;;3.10;;
11481;SDS011;5797;51.662;6.748;2023-05-03T13:30:42;6.60;;;3.45;;
11481;SDS011;5797;51.662;6.748;2023-05-03T13:33:20;5.05;;;4.07;;
11481;SDS011;5797;51.662;6.748;2023-05-03T13:35:50;6.07;;;3.53;;
11481;SDS011;5797;51.662;6.748;2023-05-03T13:38:19;9.65;;;3.60;;
11481;SDS011;5797;51.662;6.748;2023-05-03T13:40:48;8.70;;;3.78;;
11481;SDS011;5797;51.662;6.748;2023-05-03T13:43:17;3.92;;;3.20;;
11481;SDS011;5797;51.662;6.748;2023-05-03T13:45:45;4.80;;;3.25;;
11481;SDS011;5797;51.662;6.748;2023-05-03T13:48:16;3.40;;;2.80;;
11481;SDS011;5797;51.662;6.748;2023-05-03T13:50:47;7.53;;;3.53;;
11481;SDS011;5797;51.662;6.748;2023-05-03T13:53:18;7.32;;;3.13;;
11481;SDS011;5797;51.662;6.748;2023-05-03T13:55:47;10.57;;;3.42;;
11481;SDS011;5797;51.662;6.748;2023-05-03T13:58:17;4.65;;;2.97;;
11481;SDS011;5797;51.662;6.748;2023-05-03T14:00:46;5.35;;;3.63;;
11481;SDS011;5797;51.662;6.748;2023-05-03T14:03:15;6.53;;;3.42;;
11481;SDS011;5797;51.662;6.748;2023-05-03T14:05:43;6.65;;;3.38;;
11481;SDS011;5797;51.662;6.748;2023-05-03T14:08:13;5.85;;;3.40;;
11481;SDS011;5797;51.662;6.748;2023-05-03T14:10:43;5.57;;;3.28;;
11481;SDS011;5797;51.662;6.748;2023-05-03T14:13:12;4.80;;;3.30;;
11481;SDS011;5797;51.662;6.748;2023-05-03T14:15:40;5.82;;;3.42;;
11481;SDS011;5797;51.662;6.748;2023-05-03T14:18:10;6.50;;;3.47;;
11481;SDS011;5797;51.662;6.748;2023-05-03T14:20:38;5.43;;;3.35;;
11481;SDS011;5797;51.662;6.748;2023-05-03T14:23:07;5.45;;;3.22;;
11481;SDS011;5797;51.662;6.748;2023-05-03T14:25:39;4.03;;;3.13;;
11481;SDS011;5797;51.662;6.748;2023-05-03T14:28:53;4.90;;;3.50;;
11481;SDS011;5797;51.662;6.748;2023-05-03T14:31:10;6.60;;;3.42;;
11481;SDS011;5797;51.662;6.748;2023-05-03T14:33:42;6.07;;;3.20;;
11481;SDS011;5797;51.662;6.748;2023-05-03T14:39:42;4.70;;;3.30;;
11481;SDS011;5797;51.662;6.748;2023-05-03T14:42:36;5.13;;;3.38;;
11481;SDS011;5797;51.662;6.748;2023-05-03T14:49:54;5.75;;;3.28;;
11481;SDS011;5797;51.662;6.748;2023-05-03T14:59:03;5.53;;;3.70;;
11481;SDS011;5797;51.662;6.748;2023-05-03T15:01:14;6.32;;;3.00;;
11481;SDS011;5797;51.662;6.748;2023-05-03T15:03:59;4.05;;;3.25;;
11481;SDS011;5797;51.662;6.748;2023-05-03T15:06:35;4.80;;;3.10;;
11481;SDS011;5797;51.662;6.748;2023-05-03T15:09:04;5.55;;;3.47;;
11481;SDS011;5797;51.662;6.748;2023-05-03T15:14:35;4.38;;;2.78;;
11481;SDS011;5797;51.662;6.748;2023-05-03T15:20:24;8.15;;;3.08;;
11481;SDS011;5797;51.662;6.748;2023-05-03T15:22:56;8.57;;;4.53;;
11481;SDS011;5797;51.662;6.748;2023-05-03T15:37:36;34.88;;;8.82;;
11481;SDS011;5797;51.662;6.748;2023-05-03T15:44:52;8.63;;;3.60;;
11481;SDS011;5797;51.662;6.748;2023-05-03T15:47:28;6.78;;;3.20;;
11481;SDS011;5797;51.662;6.748;2023-05-03T15:49:58;4.80;;;3.30;;
11481;SDS011;5797;51.662;6.748;2023-05-03T15:52:34;5.78;;;3.00;;
11481;SDS011;5797;51.662;6.748;2023-05-03T15:55:18;4.50;;;3.63;;
11481;SDS011;5797;51.662;6.748;2023-05-03T15:57:58;4.93;;;3.42;;
11481;SDS011;5797;51.662;6.748;2023-05-03T16:00:40;28.48;;;7.05;;
11481;SDS011;5797;51.662;6.748;2023-05-03T16:03:09;18.50;;;5.15;;
11481;SDS011;5797;51.662;6.748;2023-05-03T16:05:49;6.25;;;3.33;;
11481;SDS011;5797;51.662;6.748;2023-05-03T16:08:25;14.48;;;5.15;;
11481;SDS011;5797;51.662;6.748;2023-05-03T16:10:56;5.43;;;3.50;;
11481;SDS011;5797;51.662;6.748;2023-05-03T16:13:27;8.82;;;3.47;;